createdAt,value
2018-04-12T00:01:48.330Z,82.85
2018-04-12T00:04:54.450Z,82.73
2018-04-12T00:08:00.090Z,83.01
2018-04-12T00:11:05.302Z,82.86
2018-04-12T00:14:10.233Z,83.02
2018-04-12T00:17:15.453Z,82.82
2018-04-12T00:20:20.663Z,83.07
2018-04-12T00:23:26.785Z,83.05
2018-04-12T00:26:32.400Z,82.83
2018-04-12T00:29:38.401Z,82.84
2018-04-12T00:32:44.637Z,82.73
2018-04-12T00:35:49.862Z,82.77
2018-04-12T00:38:55.999Z,82.70
2018-04-12T00:42:01.969Z,82.85
2018-04-12T00:45:08.072Z,82.90
2018-04-12T00:48:13.269Z,82.81
2018-04-12T00:51:18.971Z,82.97
2018-04-12T00:54:24.877Z,82.76
2018-04-12T00:57:30.081Z,82.86
2018-04-12T01:00:35.712Z,82.98
2018-04-12T01:03:41.914Z,83.18
2018-04-12T01:06:47.140Z,83.22
2018-04-12T01:09:53.250Z,83.43
2018-04-12T01:12:58.464Z,83.48
2018-04-12T01:16:04.573Z,83.38
2018-04-12T01:19:09.694Z,83.43
2018-04-12T01:22:14.893Z,83.49
2018-04-12T01:25:20.126Z,83.41
2018-04-12T01:28:25.293Z,83.41
2018-04-12T01:31:30.921Z,83.55
2018-04-12T01:34:37.049Z,83.74
2018-04-12T01:37:42.277Z,83.67
2018-04-12T01:40:47.497Z,83.67
2018-04-12T01:43:52.701Z,83.43
2018-04-12T01:46:58.436Z,83.63
2018-04-12T01:50:04.033Z,83.75
2018-04-12T01:53:09.286Z,83.48
2018-04-12T01:56:15.200Z,83.29
2018-04-12T01:59:21.351Z,83.20
2018-04-12T02:02:27.573Z,83.25
2018-04-12T02:05:33.426Z,83.15
2018-04-12T02:08:38.835Z,83.06
2018-04-12T02:11:44.461Z,83.02
2018-04-12T02:14:50.273Z,83.12
2018-04-12T02:17:56.406Z,83.15
2018-04-12T02:21:02.030Z,83.25
2018-04-12T02:24:08.154Z,83.24
2018-04-12T02:27:13.829Z,83.20
2018-04-12T02:30:19.288Z,83.20
2018-04-12T02:33:24.652Z,83.53
2018-04-12T02:36:30.401Z,83.79
2018-04-12T02:39:35.640Z,83.72
2018-04-12T02:42:40.557Z,83.80
2018-04-12T02:45:46.594Z,83.89
2018-04-12T02:48:52.658Z,84.12
2018-04-12T02:51:58.785Z,84.01
2018-04-12T02:55:03.779Z,84.17
2018-04-12T02:58:09.697Z,84.13
2018-04-12T03:01:16.581Z,83.83
2018-04-12T03:04:22.402Z,84.23
2018-04-12T03:07:28.545Z,84.02
2018-04-12T03:10:33.752Z,83.82
2018-04-12T03:13:38.966Z,83.90
2018-04-12T03:16:44.601Z,83.90
2018-04-12T03:19:50.006Z,83.82
2018-04-12T03:22:55.228Z,83.72
2018-04-12T03:26:00.281Z,83.59
2018-04-12T03:29:05.917Z,83.62
2018-04-12T03:32:11.137Z,83.67
2018-04-12T03:35:16.365Z,83.85
2018-04-12T03:38:21.609Z,83.83
2018-04-12T03:41:26.793Z,83.85
2018-04-12T03:44:31.665Z,83.98
2018-04-12T03:47:37.803Z,84.16
2018-04-12T03:50:43.149Z,84.04
2018-04-12T03:53:48.361Z,84.16
2018-04-12T03:56:54.277Z,83.94
2018-04-12T03:59:59.249Z,84.04
2018-04-12T04:03:04.478Z,84.09
2018-04-12T04:06:10.193Z,84.02
2018-04-12T04:09:15.527Z,84.12
2018-04-12T04:12:20.517Z,84.09
2018-04-12T04:15:36.542Z,84.06
2018-04-12T04:18:52.217Z,84.15
2018-04-12T04:21:58.784Z,84.13
2018-04-12T04:25:03.671Z,84.21
2018-04-12T04:28:09.286Z,84.17
2018-04-12T04:31:14.481Z,84.32
2018-04-12T04:34:20.118Z,84.43
2018-04-12T04:37:25.325Z,84.54
2018-04-12T04:40:31.172Z,84.52
2018-04-12T04:43:36.777Z,84.68
2018-04-12T04:46:41.998Z,84.82
2018-04-12T04:49:47.200Z,84.93
2018-04-12T04:52:52.617Z,84.89
2018-04-12T04:55:58.541Z,84.76
2018-04-12T04:59:03.764Z,84.62
2018-04-12T05:02:10.416Z,84.67
2018-04-12T05:05:15.108Z,84.66
2018-04-12T05:08:20.121Z,84.69
2018-04-12T05:11:25.361Z,84.73
2018-04-12T05:14:31.101Z,84.84
2018-04-12T05:17:36.313Z,84.80
2018-04-12T05:20:41.509Z,84.78
2018-04-12T05:23:46.734Z,84.88
2018-04-12T05:26:52.769Z,84.96
2018-04-12T05:29:57.742Z,84.97
2018-04-12T05:33:02.951Z,85.12
2018-04-12T05:36:08.169Z,85.21
2018-04-12T05:39:14.482Z,85.10
2018-04-12T05:42:20.623Z,85.23
2018-04-12T05:45:26.280Z,85.20
2018-04-12T05:48:31.459Z,85.48
2018-04-12T05:51:37.591Z,85.28
2018-04-12T05:54:42.517Z,85.28
2018-04-12T05:57:48.541Z,85.13
2018-04-12T06:00:53.741Z,85.25
2018-04-12T06:03:58.960Z,85.27
2018-04-12T06:07:04.441Z,85.29
2018-04-12T06:10:09.763Z,85.38
2018-04-12T06:13:14.961Z,85.33
2018-04-12T06:16:20.786Z,85.61
2018-04-12T06:19:26.897Z,85.39
2018-04-12T06:22:32.525Z,85.26
2018-04-12T06:25:37.729Z,85.21
2018-04-12T06:28:43.591Z,85.26
2018-04-12T06:31:49.692Z,85.22
2018-04-12T06:34:55.326Z,85.62
2018-04-12T06:38:00.535Z,85.53
2018-04-12T06:41:06.901Z,85.46
2018-04-12T06:44:12.100Z,85.46
2018-04-12T06:47:17.713Z,85.29
2018-04-12T06:50:23.602Z,85.63
2018-04-12T06:53:29.718Z,85.33
2018-04-12T06:56:34.655Z,85.54
2018-04-12T06:59:40.299Z,85.42
2018-04-12T07:02:45.522Z,85.31
2018-04-12T07:05:51.718Z,85.65
2018-04-12T07:08:57.105Z,85.37
2018-04-12T07:12:02.297Z,85.62
2018-04-12T07:15:08.231Z,85.97
2018-04-12T07:18:13.448Z,85.66
2018-04-12T07:21:19.165Z,85.78
2018-04-12T07:24:24.382Z,85.72
2018-04-12T07:27:29.373Z,86.15
2018-04-12T07:30:34.654Z,85.83
2018-04-12T07:33:40.393Z,86.06
2018-04-12T07:36:46.417Z,86.03
2018-04-12T07:39:51.813Z,85.91
2018-04-12T07:42:57.026Z,85.71
2018-04-12T07:46:02.670Z,86.14
2018-04-12T07:49:08.823Z,85.74
2018-04-12T07:52:14.453Z,85.72
2018-04-12T07:55:20.493Z,85.89
2018-04-12T07:58:26.609Z,85.73
2018-04-12T08:01:32.005Z,85.57
2018-04-12T08:04:37.218Z,85.87
2018-04-12T08:07:43.383Z,85.95
2018-04-12T08:10:48.321Z,86.79
2018-04-12T08:13:53.978Z,86.19
2018-04-12T08:16:59.889Z,86.12
2018-04-12T08:20:04.585Z,85.56
2018-04-12T08:23:10.500Z,86.01
2018-04-12T08:26:15.712Z,85.47
2018-04-12T08:29:20.940Z,85.81
2018-04-12T08:32:26.589Z,86.03
2018-04-12T08:35:31.839Z,85.53
2018-04-12T08:38:38.586Z,85.96
2018-04-12T08:41:44.206Z,85.94
2018-04-12T08:44:50.531Z,85.75
2018-04-12T08:47:55.759Z,85.75
2018-04-12T08:51:00.891Z,85.87
2018-04-12T08:54:07.029Z,85.39
2018-04-12T08:57:11.916Z,85.75
2018-04-12T09:00:17.053Z,85.52
2018-04-12T09:03:22.989Z,85.36
2018-04-12T09:06:28.239Z,85.08
2018-04-12T09:09:33.176Z,85.06
2018-04-12T09:12:38.390Z,85.04
2018-04-12T09:15:44.033Z,84.99
2018-04-12T09:18:50.375Z,84.96
2018-04-12T09:21:56.513Z,84.71
2018-04-12T09:25:01.728Z,84.73
2018-04-12T09:28:07.870Z,84.30
2018-04-12T09:31:13.097Z,84.48
2018-04-12T09:34:18.254Z,84.42
2018-04-12T09:37:23.480Z,84.21
2018-04-12T09:40:29.153Z,84.32
2018-04-12T09:43:35.106Z,83.96
2018-04-12T09:46:40.049Z,84.07
2018-04-12T09:49:45.990Z,83.91
2018-04-12T09:52:51.225Z,83.79
2018-04-12T09:55:56.472Z,83.78
2018-04-12T09:59:01.690Z,83.58
2018-04-12T10:02:06.682Z,83.75
2018-04-12T10:05:17.810Z,83.41
2018-04-12T10:08:27.696Z,83.41
2018-04-12T10:11:33.921Z,83.35
2018-04-12T10:14:40.061Z,83.08
2018-04-12T10:17:45.295Z,82.72
2018-04-12T10:20:50.523Z,82.61
2018-04-12T10:23:55.752Z,82.42
2018-04-12T10:27:00.965Z,82.37
2018-04-12T10:30:07.185Z,82.21
2018-04-12T10:33:13.338Z,82.26
2018-04-12T10:36:19.153Z,82.20
2018-04-12T10:39:24.399Z,82.11
2018-04-12T10:42:29.617Z,82.20
2018-04-12T10:45:35.142Z,82.30
2018-04-12T10:48:40.357Z,82.18
2018-04-12T10:51:45.402Z,82.21
2018-04-12T10:54:50.809Z,82.23
2018-04-12T10:57:56.870Z,82.24
2018-04-12T11:01:02.098Z,82.35
2018-04-12T11:04:08.102Z,82.46
2018-04-12T11:07:13.531Z,82.14
2018-04-12T11:10:19.278Z,82.12
2018-04-12T11:13:24.493Z,82.27
2018-04-12T11:16:30.529Z,82.22
2018-04-12T11:19:36.498Z,82.28
2018-04-12T11:22:42.554Z,82.18
2018-04-12T11:25:48.520Z,82.09
2018-04-12T11:28:54.670Z,82.18
2018-04-12T11:31:59.610Z,82.14
2018-04-12T11:35:04.524Z,82.12
2018-04-12T11:38:10.940Z,82.06
2018-04-12T11:41:16.161Z,81.86
2018-04-12T11:44:22.111Z,82.06
2018-04-12T11:47:27.110Z,81.87
2018-04-12T11:50:33.356Z,81.60
2018-04-12T11:53:39.185Z,81.81
2018-04-12T11:56:45.174Z,82.04
2018-04-12T11:59:51.484Z,81.96
2018-04-12T12:02:56.713Z,81.84
2018-04-12T12:06:01.659Z,81.61
2018-04-12T12:09:08.241Z,81.62
2018-04-12T12:12:14.119Z,81.33
2018-04-12T12:15:20.245Z,81.16
2018-04-12T12:18:26.402Z,81.18
2018-04-12T12:21:32.494Z,81.00
2018-04-12T12:24:38.432Z,81.00
2018-04-12T12:27:44.457Z,80.79
2018-04-12T12:30:50.505Z,80.65
2018-04-12T12:33:56.320Z,80.62
2018-04-12T12:37:01.545Z,80.53
2018-04-12T12:40:06.514Z,80.73
2018-04-12T12:43:12.474Z,80.70
2018-04-12T12:46:18.338Z,80.78
2018-04-12T12:49:24.471Z,80.72
2018-04-12T12:52:30.106Z,80.62
2018-04-12T12:55:35.821Z,80.48
2018-04-12T12:58:41.244Z,80.43
2018-04-12T13:01:46.482Z,80.42
2018-04-12T13:04:52.163Z,80.34
2018-04-12T13:07:57.374Z,80.31
2018-04-12T13:11:02.621Z,80.08
2018-04-12T13:14:08.953Z,79.93
2018-04-12T13:17:14.171Z,79.82
2018-04-12T13:20:20.392Z,79.61
2018-04-12T13:23:26.019Z,79.77
2018-04-12T13:26:31.771Z,79.77
2018-04-12T13:29:36.998Z,79.79
2018-04-12T13:32:42.721Z,79.76
2018-04-12T13:35:48.677Z,79.86
2018-04-12T13:38:54.099Z,79.98
2018-04-12T13:41:59.748Z,79.92
2018-04-12T13:45:04.421Z,80.07
2018-04-12T13:48:12.063Z,80.20
2018-04-12T13:51:19.149Z,80.23
2018-04-12T13:54:24.757Z,80.11
2018-04-12T13:57:30.007Z,80.06
2018-04-12T14:00:35.222Z,80.08
2018-04-12T14:03:40.441Z,80.12
2018-04-12T14:06:45.685Z,79.92
2018-04-12T14:09:50.621Z,79.84
2018-04-12T14:12:57.298Z,79.63
2018-04-12T14:16:02.520Z,79.31
2018-04-12T14:19:07.741Z,79.09
2018-04-12T14:22:13.470Z,79.04
2018-04-12T14:25:19.533Z,79.08
2018-04-12T14:28:25.694Z,79.17
2018-04-12T14:31:31.734Z,79.21
2018-04-12T14:34:37.669Z,79.32
2018-04-12T14:37:42.891Z,78.96
2018-04-12T14:40:48.482Z,78.84
2018-04-12T14:43:53.708Z,78.96
2018-04-12T14:46:58.938Z,78.98
2018-04-12T14:50:04.726Z,78.80
2018-04-12T14:53:09.969Z,78.94
2018-04-12T14:56:15.178Z,78.88
2018-04-12T14:59:20.412Z,78.48
2018-04-12T15:02:26.552Z,78.51
2018-04-12T15:05:32.600Z,78.60
2018-04-12T15:08:38.033Z,78.61
2018-04-12T15:11:43.669Z,78.37
2018-04-12T15:14:48.884Z,78.09
2018-04-12T15:17:54.112Z,78.12
2018-04-12T15:21:00.276Z,78.02
2018-04-12T15:24:05.990Z,78.16
2018-04-12T15:27:11.377Z,78.03
2018-04-12T15:30:16.794Z,78.05
2018-04-12T15:33:22.024Z,77.82
2018-04-12T15:36:27.754Z,77.55
2018-04-12T15:39:32.978Z,77.69
2018-04-12T15:42:39.731Z,77.80
2018-04-12T15:45:45.116Z,77.64
2018-04-12T15:48:50.560Z,77.37
2018-04-12T15:51:55.981Z,77.42
2018-04-12T15:55:01.905Z,77.15
2018-04-12T15:58:08.007Z,77.41
2018-04-12T16:01:13.601Z,77.07
2018-04-12T16:04:18.541Z,77.01
2018-04-12T16:07:24.040Z,77.15
2018-04-12T16:10:28.979Z,77.28
2018-04-12T16:13:34.852Z,77.35
2018-04-12T16:16:40.704Z,77.25
2018-04-12T16:19:46.060Z,77.28
2018-04-12T16:22:51.031Z,77.15
2018-04-12T16:25:56.009Z,77.04
2018-04-12T16:29:01.593Z,77.12
2018-04-12T16:32:07.907Z,77.30
2018-04-12T16:35:13.211Z,76.92
2018-04-12T16:38:19.127Z,76.36
2018-04-12T16:41:24.455Z,76.75
2018-04-12T16:44:29.428Z,76.66
2018-04-12T16:47:34.573Z,76.92
2018-04-12T16:50:39.293Z,76.86
2018-04-12T16:53:45.429Z,76.12
2018-04-12T16:56:51.123Z,75.70
2018-04-12T16:59:57.088Z,75.99
2018-04-12T17:03:02.201Z,75.09
2018-04-12T17:06:07.649Z,74.40
2018-04-12T17:09:13.025Z,74.67
2018-04-12T17:12:19.410Z,75.24
2018-04-12T17:15:25.066Z,74.22
2018-04-12T17:18:30.005Z,74.47
2018-04-12T17:21:35.243Z,74.62
2018-04-12T17:24:40.706Z,74.86
2018-04-12T17:27:45.856Z,75.18
2018-04-12T17:30:51.537Z,75.23
2018-04-12T17:33:57.447Z,75.40
2018-04-12T17:37:03.148Z,75.22
2018-04-12T17:40:08.907Z,75.48
2018-04-12T17:43:14.933Z,75.48
2018-04-12T17:46:20.170Z,75.81
2018-04-12T17:49:25.539Z,75.67
2018-04-12T17:52:31.624Z,75.80
2018-04-12T17:55:36.566Z,76.02
2018-04-12T17:58:42.511Z,76.31
2018-04-12T18:01:48.370Z,76.43
2018-04-12T18:04:54.165Z,76.63
2018-04-12T18:08:00.026Z,76.76
2018-04-12T18:11:05.392Z,76.81
2018-04-12T18:14:11.363Z,76.82
2018-04-12T18:17:17.284Z,77.05
2018-04-12T18:20:22.239Z,77.11
2018-04-12T18:23:27.457Z,77.19
2018-04-12T18:26:32.396Z,77.35
2018-04-12T18:29:38.360Z,77.39
2018-04-12T18:32:43.994Z,77.37
2018-04-12T18:35:48.933Z,77.57
2018-04-12T18:38:54.883Z,77.78
2018-04-12T18:41:59.819Z,78.02
2018-04-12T18:45:05.581Z,77.91
2018-04-12T18:48:11.434Z,77.88
2018-04-12T18:51:17.059Z,78.04
2018-04-12T18:54:22.977Z,78.25
2018-04-12T18:57:28.181Z,77.93
2018-04-12T19:00:33.618Z,77.78
2018-04-12T19:03:38.559Z,78.00
2018-04-12T19:06:45.125Z,77.81
2018-04-12T19:09:50.054Z,78.27
2018-04-12T19:12:55.593Z,78.56
2018-04-12T19:16:00.525Z,78.75
2018-04-12T19:19:05.426Z,78.78
2018-04-12T19:22:10.874Z,79.04
2018-04-12T19:25:15.813Z,79.24
2018-04-12T19:28:21.271Z,79.07
2018-04-12T19:31:26.190Z,79.11
2018-04-12T19:34:31.653Z,79.49
2018-04-12T19:37:36.577Z,79.40
2018-04-12T19:40:41.934Z,79.53
2018-04-12T19:43:46.864Z,79.25
2018-04-12T19:46:52.537Z,79.56
2018-04-12T19:49:57.471Z,79.74
2018-04-12T19:53:02.409Z,79.79
2018-04-12T19:56:08.161Z,79.72
2018-04-12T19:59:13.923Z,79.92
2018-04-12T20:02:19.959Z,79.88
2018-04-12T20:05:24.900Z,79.81
2018-04-12T20:08:30.938Z,79.67
2018-04-12T20:11:35.878Z,79.76
2018-04-12T20:14:42.018Z,79.73
2018-04-12T20:17:46.527Z,79.68
2018-04-12T20:20:52.094Z,79.97
2018-04-12T20:23:57.971Z,79.65
2018-04-12T20:27:02.908Z,79.66
2018-04-12T20:30:07.844Z,79.82
2018-04-12T20:33:13.627Z,79.77
2018-04-12T20:36:18.629Z,80.45
2018-04-12T20:39:24.025Z,79.98
2018-04-12T20:42:28.977Z,80.05
2018-04-12T20:45:33.912Z,80.09
2018-04-12T20:48:38.860Z,80.06
2018-04-12T20:51:44.329Z,80.08
2018-04-12T20:54:49.285Z,80.19
2018-04-12T20:57:54.754Z,80.12
2018-04-12T21:01:00.185Z,80.10
2018-04-12T21:04:06.544Z,80.18
2018-04-12T21:07:12.089Z,80.36
2018-04-12T21:10:17.455Z,80.28
2018-04-12T21:13:22.393Z,80.29
2018-04-12T21:16:27.509Z,80.22
2018-04-12T21:19:32.451Z,80.56
2018-04-12T21:22:38.097Z,80.65
2018-04-12T21:25:43.030Z,80.53
2018-04-12T21:28:49.082Z,80.59
2018-04-12T21:31:54.522Z,80.39
2018-04-12T21:35:00.404Z,80.48
2018-04-12T21:38:05.610Z,80.57
2018-04-12T21:41:11.457Z,80.61
2018-04-12T21:44:17.169Z,80.71
2018-04-12T21:47:22.805Z,80.66
2018-04-12T21:50:27.750Z,80.98
2018-04-12T21:53:33.081Z,80.91
2018-04-12T21:56:38.020Z,81.05
2018-04-12T21:59:43.370Z,80.69
2018-04-12T22:02:49.247Z,80.82
2018-04-12T22:05:55.076Z,80.72
2018-04-12T22:09:00.016Z,80.85
2018-04-12T22:12:05.760Z,80.70
2018-04-12T22:15:10.701Z,80.68
2018-04-12T22:18:16.045Z,80.71
2018-04-12T22:21:20.982Z,80.66
2018-04-12T22:24:27.550Z,80.85
2018-04-12T22:27:34.576Z,80.92
2018-04-12T22:30:40.126Z,80.75
2018-04-12T22:33:45.684Z,80.71
2018-04-12T22:36:50.661Z,80.87
2018-04-12T22:39:56.211Z,80.93
2018-04-12T22:43:02.057Z,80.99
2018-04-12T22:46:07.806Z,80.95
2018-04-12T22:49:13.439Z,80.92
2018-04-12T22:52:19.193Z,80.81
2018-04-12T22:55:25.025Z,80.73
2018-04-12T22:58:30.877Z,81.02
2018-04-12T23:01:36.116Z,81.10
2018-04-12T23:04:41.333Z,81.17
2018-04-12T23:07:46.549Z,81.49
2018-04-12T23:10:51.753Z,81.68
2018-04-12T23:13:57.902Z,81.77
2018-04-12T23:17:03.514Z,81.72
2018-04-12T23:20:08.728Z,81.81
2018-04-12T23:23:14.751Z,81.81
2018-04-12T23:26:20.421Z,81.96
2018-04-12T23:29:25.661Z,82.06
2018-04-12T23:32:30.860Z,82.06
2018-04-12T23:35:36.076Z,82.18
2018-04-12T23:38:41.295Z,82.17
2018-04-12T23:41:47.439Z,82.11
2018-04-12T23:44:53.077Z,82.13
2018-04-12T23:47:59.193Z,82.00
2018-04-12T23:51:05.222Z,82.04
2018-04-12T23:54:11.386Z,82.04
2018-04-12T23:57:17.326Z,82.02
